createdAt,value
2023-05-10T00:00:27.332Z,71.86
2023-05-10T00:01:30.446Z,72.10
2023-05-10T00:02:33.826Z,72.29
2023-05-10T00:03:37.049Z,72.70
2023-05-10T00:04:40.094Z,72.66
2023-05-10T00:05:42.992Z,72.70
2023-05-10T00:06:45.971Z,72.46
2023-05-10T00:07:48.851Z,72.27
2023-05-10T00:08:51.743Z,72.28
2023-05-10T00:09:54.797Z,72.25
2023-05-10T00:10:57.812Z,72.83
2023-05-10T00:12:00.964Z,72.95
2023-05-10T00:13:04.095Z,73.24
2023-05-10T00:14:07.021Z,72.76
2023-05-10T00:15:10.902Z,72.87
2023-05-10T00:16:14.443Z,72.57
2023-05-10T00:17:17.401Z,72.95
2023-05-10T00:18:20.350Z,73.41
2023-05-10T00:19:23.252Z,73.20
2023-05-10T00:20:26.317Z,73.24
2023-05-10T00:21:29.692Z,73.26
2023-05-10T00:22:33.246Z,73.58
2023-05-10T00:23:36.288Z,73.61
2023-05-10T00:24:39.487Z,74.07
2023-05-10T00:25:42.544Z,74.46
2023-05-10T00:26:45.897Z,74.29
2023-05-10T00:27:49.227Z,74.38
2023-05-10T00:28:52.284Z,74.40
2023-05-10T00:29:55.178Z,74.35
2023-05-10T00:30:58.130Z,74.44
2023-05-10T00:32:01.181Z,74.91
2023-05-10T00:33:04.334Z,75.38
2023-05-10T00:34:07.303Z,74.72
2023-05-10T00:35:10.856Z,74.98
2023-05-10T00:36:13.774Z,74.91
2023-05-10T00:37:16.704Z,74.91
2023-05-10T00:38:19.657Z,74.48
2023-05-10T00:39:23.450Z,74.19
2023-05-10T00:40:26.571Z,74.62
2023-05-10T00:41:29.381Z,74.40
2023-05-10T00:42:32.385Z,74.52
2023-05-10T00:43:35.352Z,74.98
2023-05-10T00:44:38.677Z,74.69
2023-05-10T00:45:42.698Z,75.01
2023-05-10T00:46:46.572Z,74.59
2023-05-10T00:47:49.494Z,74.56
2023-05-10T00:48:53.155Z,74.44
2023-05-10T00:49:57.065Z,74.90
2023-05-10T00:51:00.049Z,75.20
2023-05-10T00:52:03.931Z,75.10
2023-05-10T00:53:07.358Z,75.38
2023-05-10T00:54:13.616Z,75.19
2023-05-10T00:55:16.630Z,75.29
2023-05-10T00:56:19.642Z,75.09
2023-05-10T00:57:23.534Z,75.09
2023-05-10T00:58:29.575Z,75.42
2023-05-10T00:59:32.837Z,75.70
2023-05-10T01:00:38.718Z,76.02
2023-05-10T01:01:41.983Z,76.09
2023-05-10T01:02:47.911Z,76.03
2023-05-10T01:03:51.178Z,76.35
2023-05-10T01:04:54.037Z,76.79
2023-05-10T01:05:56.916Z,76.81
2023-05-10T01:07:00.114Z,76.85
2023-05-10T01:08:03.940Z,76.21
2023-05-10T01:09:07.789Z,76.31
2023-05-10T01:10:11.825Z,76.10
2023-05-10T01:11:15.236Z,76.73
2023-05-10T01:12:18.310Z,76.82
2023-05-10T01:13:51.656Z,76.72
2023-05-10T01:14:55.621Z,77.02
2023-05-10T01:15:59.340Z,77.24
2023-05-10T01:17:02.840Z,77.33
2023-05-10T01:18:05.909Z,76.42
2023-05-10T01:19:17.866Z,76.87
2023-05-10T01:20:21.049Z,76.94
2023-05-10T01:21:23.916Z,77.17
2023-05-10T01:22:42.742Z,77.28
2023-05-10T01:23:57.265Z,77.27
2023-05-10T01:25:05.968Z,77.30
2023-05-10T01:26:16.314Z,78.10
2023-05-10T01:27:37.454Z,78.08
2023-05-10T01:28:52.026Z,78.33
2023-05-10T01:30:15.573Z,78.45
2023-05-10T01:31:43.818Z,78.37
2023-05-10T01:33:08.599Z,78.38
2023-05-10T01:34:21.828Z,78.69
2023-05-10T01:35:40.284Z,79.09
2023-05-10T01:37:17.031Z,78.75
2023-05-10T01:38:48.080Z,78.60
2023-05-10T01:40:31.044Z,78.39
2023-05-10T01:41:52.738Z,77.84
2023-05-10T01:43:04.467Z,77.85
2023-05-10T01:44:41.523Z,78.40
2023-05-10T01:46:05.977Z,78.38
2023-05-10T01:47:11.389Z,78.34
2023-05-10T01:48:16.240Z,78.15
2023-05-10T01:49:28.005Z,78.27
2023-05-10T01:50:31.431Z,78.11
2023-05-10T01:51:47.501Z,78.26
2023-05-10T01:52:56.622Z,78.54
2023-05-10T01:54:03.392Z,78.85
2023-05-10T01:55:10.454Z,78.98
2023-05-10T01:56:14.270Z,79.08
2023-05-10T01:57:19.288Z,79.23
2023-05-10T01:58:28.595Z,79.10
2023-05-10T01:59:37.817Z,79.19
2023-05-10T02:00:48.640Z,79.01
2023-05-10T02:01:53.774Z,78.75
2023-05-10T02:02:57.415Z,78.87
2023-05-10T02:04:01.378Z,79.15
2023-05-10T02:05:06.756Z,79.30
2023-05-10T02:06:11.939Z,79.34
2023-05-10T02:07:16.689Z,79.41
2023-05-10T02:08:22.431Z,79.34
2023-05-10T02:09:28.875Z,78.93
2023-05-10T02:10:33.513Z,79.34
2023-05-10T02:11:43.128Z,79.63
2023-05-10T02:12:48.953Z,79.62
2023-05-10T02:13:55.185Z,79.55
2023-05-10T02:15:00.863Z,79.91
2023-05-10T02:16:06.451Z,79.11
2023-05-10T02:17:10.855Z,79.15
2023-05-10T02:18:15.021Z,78.60
2023-05-10T02:19:20.480Z,78.23
2023-05-10T02:20:25.965Z,78.63
2023-05-10T02:21:30.394Z,78.54
2023-05-10T02:22:34.488Z,78.60
2023-05-10T02:23:38.586Z,78.69
2023-05-10T02:24:42.537Z,78.84
2023-05-10T02:25:46.279Z,78.77
2023-05-10T02:26:51.298Z,78.84
2023-05-10T02:27:58.309Z,78.51
2023-05-10T02:29:04.626Z,78.87
2023-05-10T02:30:08.872Z,78.59
2023-05-10T02:31:12.471Z,79.06
2023-05-10T02:32:17.431Z,79.35
2023-05-10T02:33:22.870Z,79.45
2023-05-10T02:34:29.466Z,79.34
2023-05-10T02:35:34.664Z,78.96
2023-05-10T02:36:41.291Z,78.29
2023-05-10T02:37:46.831Z,78.22
2023-05-10T02:38:52.904Z,78.46
2023-05-10T02:39:57.941Z,78.57
2023-05-10T02:41:01.263Z,78.19
2023-05-10T02:42:05.462Z,78.38
2023-05-10T02:43:13.688Z,77.83
2023-05-10T02:44:19.565Z,78.14
2023-05-10T02:45:27.604Z,78.18
2023-05-10T02:46:31.162Z,78.68
2023-05-10T02:47:34.360Z,78.59
2023-05-10T02:48:37.346Z,77.94
2023-05-10T02:49:40.376Z,78.25
2023-05-10T02:50:46.348Z,78.05
2023-05-10T02:51:56.512Z,78.01
2023-05-10T02:53:05.471Z,77.66
2023-05-10T02:54:20.181Z,78.05
2023-05-10T02:55:28.438Z,77.96
2023-05-10T02:56:36.349Z,77.83
2023-05-10T02:57:43.670Z,76.98
2023-05-10T02:58:47.436Z,76.48
2023-05-10T02:59:50.511Z,76.40
2023-05-10T03:00:53.616Z,77.03
2023-05-10T03:01:56.635Z,77.02
2023-05-10T03:02:59.877Z,76.89
2023-05-10T03:04:02.781Z,75.84
2023-05-10T03:05:06.100Z,75.97
2023-05-10T03:06:09.106Z,75.80
2023-05-10T03:07:12.076Z,75.70
2023-05-10T03:08:15.031Z,74.59
2023-05-10T03:09:17.958Z,74.65
2023-05-10T03:10:28.538Z,74.90
2023-05-10T03:12:03.183Z,75.47
2023-05-10T03:13:25.973Z,75.04
2023-05-10T03:14:50.383Z,74.45
2023-05-10T03:16:22.756Z,74.94
2023-05-10T03:17:48.810Z,75.07
2023-05-10T03:18:58.101Z,75.46
2023-05-10T03:20:08.712Z,75.66
2023-05-10T03:21:13.761Z,75.67
2023-05-10T03:22:27.264Z,75.69
2023-05-10T03:23:37.464Z,75.25
2023-05-10T03:24:43.515Z,75.29
2023-05-10T03:25:49.273Z,75.59
2023-05-10T03:26:57.823Z,75.85
2023-05-10T03:28:05.004Z,76.01
2023-05-10T03:29:09.210Z,76.03
2023-05-10T03:30:13.794Z,75.53
2023-05-10T03:31:17.003Z,75.69
2023-05-10T03:32:20.197Z,76.55
2023-05-10T03:33:23.181Z,76.78
2023-05-10T03:34:26.710Z,76.26
2023-05-10T03:35:29.595Z,76.31
2023-05-10T03:36:32.535Z,76.50
2023-05-10T03:37:35.511Z,75.90
2023-05-10T03:38:38.408Z,75.75
2023-05-10T03:39:41.388Z,76.72
2023-05-10T03:40:44.271Z,77.15
2023-05-10T03:41:47.194Z,77.18
2023-05-10T03:42:50.037Z,77.37
2023-05-10T03:43:53.148Z,77.29
2023-05-10T03:44:56.234Z,76.68
2023-05-10T03:45:59.120Z,76.77
2023-05-10T03:47:01.993Z,77.37
2023-05-10T03:48:05.094Z,77.46
2023-05-10T03:49:07.921Z,76.88
2023-05-10T03:50:11.583Z,76.82
2023-05-10T03:51:14.407Z,76.51
2023-05-10T03:52:17.248Z,76.70
2023-05-10T03:53:20.072Z,76.76
2023-05-10T03:54:23.049Z,76.77
2023-05-10T03:55:26.197Z,76.28
2023-05-10T03:56:28.988Z,76.18
2023-05-10T03:57:31.949Z,76.81
2023-05-10T03:58:35.281Z,76.84
2023-05-10T03:59:38.241Z,76.43
2023-05-10T04:00:45.003Z,76.98
2023-05-10T04:01:47.908Z,76.57
2023-05-10T04:02:50.959Z,76.71
2023-05-10T04:03:54.347Z,76.89
2023-05-10T04:04:57.700Z,76.73
2023-05-10T04:06:02.754Z,76.94
2023-05-10T04:07:05.746Z,77.08
2023-05-10T04:08:09.047Z,77.17
2023-05-10T04:09:12.195Z,76.31
2023-05-10T04:10:15.526Z,75.85
2023-05-10T04:11:18.439Z,75.96
2023-05-10T04:12:21.449Z,76.26
2023-05-10T04:13:24.334Z,76.33
2023-05-10T04:14:27.275Z,76.08
2023-05-10T04:15:30.193Z,76.25
2023-05-10T04:16:33.116Z,75.71
2023-05-10T04:17:36.135Z,75.83
2023-05-10T04:18:39.235Z,75.94
2023-05-10T04:19:42.061Z,75.45
2023-05-10T04:20:45.021Z,75.38
2023-05-10T04:21:47.860Z,75.11
2023-05-10T04:22:50.874Z,75.23
2023-05-10T04:23:53.671Z,75.11
2023-05-10T04:24:56.571Z,75.25
2023-05-10T04:26:03.142Z,75.50
2023-05-10T04:27:05.987Z,76.03
2023-05-10T04:28:08.832Z,76.54
2023-05-10T04:29:11.699Z,76.81
2023-05-10T04:30:14.780Z,76.32
2023-05-10T04:31:18.449Z,76.21
2023-05-10T04:32:21.647Z,76.54
2023-05-10T04:33:24.548Z,77.13
2023-05-10T04:34:27.430Z,76.64
2023-05-10T04:35:30.380Z,76.07
2023-05-10T04:36:35.307Z,76.40
2023-05-10T04:37:38.243Z,76.53
2023-05-10T04:38:41.278Z,76.29
2023-05-10T04:39:44.086Z,76.59
2023-05-10T04:40:47.022Z,76.87
2023-05-10T04:41:50.027Z,76.81
2023-05-10T04:42:53.045Z,76.73
2023-05-10T04:43:56.147Z,77.08
2023-05-10T04:44:59.000Z,76.41
2023-05-10T04:46:02.077Z,75.77
2023-05-10T04:47:05.373Z,75.89
2023-05-10T04:48:08.755Z,75.93
2023-05-10T04:49:11.718Z,75.79
2023-05-10T04:50:14.751Z,76.07
2023-05-10T04:51:17.962Z,76.08
2023-05-10T04:52:20.774Z,76.03
2023-05-10T04:53:24.097Z,76.12
2023-05-10T04:54:26.980Z,75.85
2023-05-10T04:55:29.853Z,75.92
2023-05-10T04:56:32.622Z,76.49
2023-05-10T04:57:35.482Z,76.43
2023-05-10T04:58:38.515Z,76.44
2023-05-10T04:59:41.353Z,76.41
2023-05-10T05:00:44.194Z,75.98
2023-05-10T05:01:47.119Z,75.51
2023-05-10T05:02:50.247Z,75.25
2023-05-10T05:03:54.280Z,74.78
2023-05-10T05:04:59.404Z,74.82
2023-05-10T05:06:02.332Z,74.93
2023-05-10T05:07:05.276Z,74.68
2023-05-10T05:08:08.171Z,75.22
2023-05-10T05:09:11.458Z,75.96
2023-05-10T05:10:14.574Z,75.77
2023-05-10T05:11:18.762Z,75.48
2023-05-10T05:12:21.783Z,75.04
2023-05-10T05:13:25.044Z,75.20
2023-05-10T05:14:27.961Z,74.58
2023-05-10T05:15:31.822Z,74.11
2023-05-10T05:16:34.889Z,74.56
2023-05-10T05:17:38.301Z,73.96
2023-05-10T05:18:41.446Z,73.42
2023-05-10T05:19:44.288Z,73.59
2023-05-10T05:20:47.585Z,73.15
2023-05-10T05:21:50.465Z,73.50
2023-05-10T05:22:53.454Z,73.82
2023-05-10T05:23:56.185Z,73.50
2023-05-10T05:25:03.908Z,72.95
2023-05-10T05:26:06.740Z,72.32
2023-05-10T05:27:09.709Z,72.37
2023-05-10T05:28:12.652Z,72.22
2023-05-10T05:29:15.563Z,72.49
2023-05-10T05:30:18.868Z,72.41
2023-05-10T05:31:22.533Z,72.50
2023-05-10T05:32:26.318Z,72.84
2023-05-10T05:33:29.157Z,73.32
2023-05-10T05:34:32.100Z,73.53
2023-05-10T05:35:34.939Z,73.78
2023-05-10T05:36:39.692Z,73.62
2023-05-10T05:37:42.686Z,73.51
2023-05-10T05:38:46.318Z,73.40
2023-05-10T05:39:49.647Z,71.85
2023-05-10T05:40:52.676Z,72.20
2023-05-10T05:41:55.986Z,72.44
2023-05-10T05:42:58.950Z,71.50
2023-05-10T05:44:01.834Z,71.18
2023-05-10T05:45:04.981Z,71.54
2023-05-10T05:46:07.986Z,72.36
2023-05-10T05:47:11.749Z,72.31
2023-05-10T05:48:14.863Z,72.13
2023-05-10T05:49:17.775Z,72.59
2023-05-10T05:50:20.667Z,72.88
2023-05-10T05:51:23.898Z,73.08
2023-05-10T05:52:26.700Z,73.09
2023-05-10T05:53:29.474Z,73.21
2023-05-10T05:54:33.311Z,73.24
2023-05-10T05:55:36.714Z,72.45
2023-05-10T05:56:39.560Z,71.36
2023-05-10T05:57:42.724Z,70.54
2023-05-10T05:58:46.048Z,70.76
2023-05-10T05:59:48.986Z,71.17
2023-05-10T06:00:53.152Z,70.33
2023-05-10T06:01:56.195Z,70.96
2023-05-10T06:02:59.135Z,70.34
2023-05-10T06:04:02.217Z,69.60
2023-05-10T06:05:05.461Z,69.08
2023-05-10T06:06:08.655Z,69.95
2023-05-10T06:07:11.610Z,70.53
2023-05-10T06:08:15.240Z,71.46
2023-05-10T06:09:18.236Z,70.83
2023-05-10T06:10:21.253Z,70.32
2023-05-10T06:11:24.234Z,69.93
2023-05-10T06:12:27.087Z,69.73
2023-05-10T06:13:33.443Z,70.18
2023-05-10T06:14:36.629Z,69.00
2023-05-10T06:15:39.711Z,68.92
2023-05-10T06:16:42.850Z,69.88
2023-05-10T06:17:45.852Z,70.31
2023-05-10T06:18:48.738Z,69.48
2023-05-10T06:19:51.742Z,68.56
2023-05-10T06:20:54.731Z,68.34
2023-05-10T06:21:57.733Z,68.52
2023-05-10T06:23:00.828Z,67.75
2023-05-10T06:24:04.011Z,67.58
2023-05-10T06:25:07.413Z,67.81
2023-05-10T06:26:10.311Z,67.38
2023-05-10T06:27:13.155Z,67.74
2023-05-10T06:28:16.178Z,67.55
2023-05-10T06:29:19.084Z,68.10
2023-05-10T06:30:24.512Z,68.25
2023-05-10T06:31:27.445Z,67.84
2023-05-10T06:32:30.356Z,67.86
2023-05-10T06:33:33.391Z,66.82
2023-05-10T06:34:36.441Z,66.94
2023-05-10T06:35:40.147Z,66.86
2023-05-10T06:36:43.037Z,66.76
2023-05-10T06:37:46.008Z,67.32
2023-05-10T06:38:49.769Z,67.63
2023-05-10T06:39:52.810Z,66.94
2023-05-10T06:40:55.696Z,65.77
2023-05-10T06:41:58.568Z,65.34
2023-05-10T06:43:01.424Z,65.88
2023-05-10T06:44:04.889Z,66.29
2023-05-10T06:45:08.568Z,66.53
2023-05-10T06:46:11.628Z,65.48
2023-05-10T06:47:14.609Z,66.01
2023-05-10T06:48:17.745Z,66.40
2023-05-10T06:49:20.660Z,64.67
2023-05-10T06:50:23.778Z,64.41
2023-05-10T06:51:27.348Z,65.14
2023-05-10T06:52:52.319Z,64.99
2023-05-10T06:54:15.764Z,64.84
2023-05-10T06:55:18.884Z,64.76
2023-05-10T06:56:22.827Z,65.01
2023-05-10T06:58:33.932Z,65.50
2023-05-10T06:59:37.760Z,66.55
2023-05-10T07:00:41.888Z,66.68
2023-05-10T07:01:44.860Z,65.91
2023-05-10T07:02:48.301Z,64.68
2023-05-10T07:03:51.839Z,63.96
2023-05-10T07:04:55.525Z,63.30
2023-05-10T07:06:05.117Z,63.52
2023-05-10T07:07:07.954Z,62.46
2023-05-10T07:08:10.831Z,62.31
2023-05-10T07:09:14.643Z,62.63
2023-05-10T07:10:17.780Z,62.08
2023-05-10T07:11:20.604Z,61.20
2023-05-10T07:12:23.566Z,62.13
2023-05-10T07:13:27.201Z,62.54
2023-05-10T07:14:30.071Z,61.96
2023-05-10T07:15:33.258Z,62.18
2023-05-10T07:16:36.337Z,62.89
2023-05-10T07:17:39.339Z,63.22
2023-05-10T07:18:42.515Z,62.77
2023-05-10T07:19:45.589Z,62.57
2023-05-10T07:20:48.710Z,62.15
2023-05-10T07:21:52.043Z,60.00
2023-05-10T07:22:54.835Z,59.58
2023-05-10T07:23:57.717Z,60.07
2023-05-10T07:25:00.661Z,60.82
2023-05-10T07:26:03.720Z,58.87
2023-05-10T07:27:06.822Z,58.89
2023-05-10T07:28:09.926Z,59.34
2023-05-10T07:29:13.236Z,59.92
2023-05-10T07:30:16.457Z,60.14
2023-05-10T07:31:19.583Z,60.38
2023-05-10T07:32:22.968Z,60.65
2023-05-10T07:33:25.986Z,60.85
2023-05-10T07:34:29.464Z,58.19
2023-05-10T07:35:32.435Z,58.49
2023-05-10T07:36:35.597Z,58.33
2023-05-10T07:37:38.472Z,58.38
2023-05-10T07:38:41.511Z,58.84
2023-05-10T07:39:44.306Z,58.71
2023-05-10T07:40:46.997Z,60.26
2023-05-10T07:41:49.898Z,61.10
2023-05-10T07:42:53.108Z,59.69
2023-05-10T07:43:55.989Z,58.87
2023-05-10T07:44:59.110Z,59.36
2023-05-10T07:46:02.347Z,59.15
2023-05-10T07:47:05.236Z,59.00
2023-05-10T07:48:08.199Z,59.29
2023-05-10T07:49:11.190Z,58.09
2023-05-10T07:50:14.370Z,58.48
2023-05-10T07:51:17.205Z,59.46
2023-05-10T07:52:22.404Z,61.18
2023-05-10T07:53:28.491Z,60.76
2023-05-10T07:54:31.397Z,60.69
2023-05-10T07:55:34.695Z,60.30
2023-05-10T07:56:37.736Z,59.37
2023-05-10T07:57:40.721Z,59.10
2023-05-10T07:58:43.603Z,58.08
2023-05-10T07:59:46.562Z,58.25
2023-05-10T08:00:50.449Z,57.47
2023-05-10T08:01:53.374Z,55.59
2023-05-10T08:02:56.392Z,55.28
2023-05-10T08:03:59.450Z,56.85
2023-05-10T08:05:02.508Z,55.91
2023-05-10T08:06:05.794Z,56.93
2023-05-10T08:07:08.645Z,56.31
2023-05-10T08:08:11.769Z,55.32
2023-05-10T08:09:14.939Z,53.47
2023-05-10T08:10:18.193Z,53.48
2023-05-10T08:11:22.447Z,54.17
2023-05-10T08:12:25.464Z,55.19
2023-05-10T08:13:28.284Z,54.19
2023-05-10T08:14:31.188Z,53.89
2023-05-10T08:15:34.105Z,54.07
2023-05-10T08:16:36.891Z,55.94
2023-05-10T08:17:39.845Z,56.24
2023-05-10T08:18:42.889Z,54.93
2023-05-10T08:19:46.144Z,54.46
2023-05-10T08:20:48.910Z,55.01
2023-05-10T08:21:52.193Z,54.51
2023-05-10T08:22:55.106Z,55.05
2023-05-10T08:23:58.961Z,54.56
2023-05-10T08:25:01.850Z,53.08
2023-05-10T08:26:04.908Z,52.21
2023-05-10T08:27:07.756Z,51.98
2023-05-10T08:28:11.981Z,51.79
2023-05-10T08:29:15.762Z,52.67
2023-05-10T08:30:18.819Z,52.11
2023-05-10T08:31:21.862Z,51.58
2023-05-10T08:32:24.939Z,51.75
2023-05-10T08:33:27.907Z,52.43
2023-05-10T08:34:32.387Z,52.77
2023-05-10T08:35:36.183Z,52.93
2023-05-10T08:36:39.137Z,53.53
2023-05-10T08:37:41.974Z,54.81
2023-05-10T08:38:44.829Z,54.90
2023-05-10T08:39:49.449Z,53.71
2023-05-10T08:40:57.883Z,54.35
2023-05-10T08:42:04.608Z,54.23
2023-05-10T08:43:11.375Z,54.06
2023-05-10T08:44:15.144Z,54.26
2023-05-10T08:45:20.431Z,52.81
2023-05-10T08:46:24.319Z,53.44
2023-05-10T08:47:27.989Z,54.29
2023-05-10T08:48:32.371Z,55.15
2023-05-10T08:49:36.080Z,54.91
2023-05-10T08:50:41.258Z,54.14
2023-05-10T08:51:48.669Z,54.51
2023-05-10T08:52:56.857Z,53.60
2023-05-10T08:54:00.825Z,53.01
2023-05-10T08:55:04.460Z,53.00
2023-05-10T08:56:08.032Z,52.92
2023-05-10T08:57:12.094Z,51.46
2023-05-10T08:58:15.220Z,51.97
2023-05-10T08:59:18.321Z,52.68
2023-05-10T09:00:21.799Z,53.00
2023-05-10T09:01:25.851Z,52.03
2023-05-10T09:02:28.975Z,51.88
2023-05-10T09:03:32.914Z,51.52
2023-05-10T09:04:36.374Z,50.31
2023-05-10T09:05:39.601Z,49.85
2023-05-10T09:06:42.935Z,50.32
2023-05-10T09:07:45.899Z,51.56
2023-05-10T09:08:48.978Z,51.70
2023-05-10T09:09:52.353Z,52.01
2023-05-10T09:10:56.435Z,52.41
2023-05-10T09:11:59.476Z,53.26
2023-05-10T09:13:03.444Z,54.09
2023-05-10T09:14:06.635Z,51.78
2023-05-10T09:15:11.088Z,51.73
2023-05-10T09:17:25.368Z,52.63
2023-05-10T09:18:28.632Z,52.70
2023-05-10T09:19:31.698Z,51.83
2023-05-10T09:20:34.689Z,52.40
2023-05-10T09:21:41.324Z,52.75
2023-05-10T09:22:44.620Z,52.35
2023-05-10T09:23:51.445Z,52.27
2023-05-10T09:25:13.488Z,50.62
2023-05-10T09:26:16.617Z,50.90
2023-05-10T09:27:28.326Z,50.67
2023-05-10T09:28:53.463Z,50.76
2023-05-10T09:29:56.362Z,50.13
2023-05-10T09:30:59.288Z,50.35
2023-05-10T09:32:02.280Z,52.11
2023-05-10T09:33:05.397Z,52.06
2023-05-10T09:34:08.441Z,49.62
2023-05-10T09:35:13.139Z,49.79
2023-05-10T09:36:17.247Z,49.68
2023-05-10T09:37:31.099Z,50.31
2023-05-10T09:38:53.852Z,49.17
2023-05-10T09:39:56.716Z,48.90
2023-05-10T09:40:59.582Z,48.19
2023-05-10T09:42:07.971Z,48.72
2023-05-10T09:43:12.103Z,46.94
2023-05-10T09:44:20.115Z,47.65
2023-05-10T09:45:27.937Z,46.92
2023-05-10T09:46:30.944Z,49.21
2023-05-10T09:47:35.588Z,48.33
2023-05-10T09:48:45.739Z,47.36
2023-05-10T09:49:52.505Z,47.62
2023-05-10T09:50:59.582Z,47.50
2023-05-10T09:52:05.001Z,47.13
2023-05-10T09:53:07.981Z,45.51
2023-05-10T09:54:12.977Z,45.84
2023-05-10T09:55:17.228Z,47.23
2023-05-10T09:56:37.128Z,46.12
2023-05-10T09:57:40.331Z,46.32
2023-05-10T09:58:43.211Z,46.16
2023-05-10T09:59:46.521Z,43.12
2023-05-10T10:00:52.656Z,42.96
2023-05-10T10:02:00.792Z,43.65
2023-05-10T10:03:04.913Z,44.51
2023-05-10T10:04:09.807Z,44.58
2023-05-10T10:05:13.046Z,45.11
2023-05-10T10:06:29.634Z,44.05
2023-05-10T10:07:34.142Z,45.14
2023-05-10T10:08:37.201Z,43.84
2023-05-10T10:09:40.370Z,44.97
2023-05-10T10:10:46.340Z,46.24
2023-05-10T10:11:49.610Z,46.76
2023-05-10T10:12:53.246Z,45.95
2023-05-10T10:13:56.881Z,45.01
2023-05-10T10:15:02.432Z,44.99
2023-05-10T10:16:06.264Z,44.75
2023-05-10T10:17:10.433Z,45.32
2023-05-10T10:18:19.067Z,45.44
2023-05-10T10:19:22.931Z,45.41
2023-05-10T10:20:26.326Z,46.25
2023-05-10T10:21:29.955Z,46.72
2023-05-10T10:22:32.790Z,46.97
2023-05-10T10:23:38.633Z,46.52
2023-05-10T10:24:41.984Z,45.97
2023-05-10T10:25:46.542Z,45.81
2023-05-10T10:26:53.127Z,46.33
2023-05-10T10:28:01.041Z,46.47
2023-05-10T10:29:37.722Z,46.90
2023-05-10T10:30:45.078Z,45.21
2023-05-10T10:31:57.403Z,44.58
2023-05-10T10:33:31.289Z,44.87
2023-05-10T10:34:34.719Z,44.58
2023-05-10T10:35:38.269Z,45.23
2023-05-10T10:36:43.741Z,46.26
2023-05-10T10:37:48.455Z,45.91
2023-05-10T10:39:01.910Z,45.23
2023-05-10T10:40:27.002Z,45.25
2023-05-10T10:41:32.926Z,44.56
2023-05-10T10:42:46.209Z,44.75
2023-05-10T10:43:49.051Z,44.99
2023-05-10T10:45:15.103Z,44.86
2023-05-10T10:46:19.621Z,45.63
2023-05-10T10:47:26.086Z,45.29
2023-05-10T10:48:29.085Z,45.16
2023-05-10T10:49:37.217Z,45.43
2023-05-10T10:50:47.737Z,45.40
2023-05-10T10:52:28.965Z,43.23
2023-05-10T10:53:32.169Z,43.67
2023-05-10T10:54:36.854Z,44.04
2023-05-10T10:55:49.669Z,43.06
2023-05-10T10:57:15.236Z,43.10
2023-05-10T10:58:34.705Z,44.23
2023-05-10T10:59:37.818Z,44.43
2023-05-10T11:00:46.830Z,44.60
2023-05-10T11:01:53.343Z,45.51
2023-05-10T11:03:22.345Z,43.81
2023-05-10T11:04:25.814Z,45.08
2023-05-10T11:05:36.627Z,43.28
2023-05-10T11:06:41.446Z,41.44
2023-05-10T11:07:56.133Z,41.80
2023-05-10T11:08:59.648Z,41.42
2023-05-10T11:10:06.525Z,41.66
2023-05-10T11:11:09.569Z,40.96
2023-05-10T11:12:12.523Z,42.02
2023-05-10T11:13:15.552Z,41.44
2023-05-10T11:14:23.629Z,42.37
2023-05-10T11:15:35.436Z,42.73
2023-05-10T11:16:45.445Z,42.30
2023-05-10T11:17:53.345Z,43.14
2023-05-10T11:19:08.361Z,43.65
2023-05-10T11:20:11.922Z,43.38
2023-05-10T11:21:16.956Z,44.25
2023-05-10T11:22:19.841Z,45.18
2023-05-10T11:23:23.172Z,45.42
2023-05-10T11:24:29.361Z,44.47
2023-05-10T11:25:32.282Z,43.99
2023-05-10T11:26:36.989Z,43.38
2023-05-10T11:27:39.896Z,43.86
2023-05-10T11:28:47.226Z,44.87
2023-05-10T11:29:53.277Z,44.75
2023-05-10T11:30:56.930Z,45.29
2023-05-10T11:32:00.892Z,44.27
2023-05-10T11:33:04.023Z,43.52
2023-05-10T11:34:06.967Z,42.56
2023-05-10T11:35:13.476Z,42.67
2023-05-10T11:36:21.410Z,42.91
2023-05-10T11:37:24.262Z,40.95
2023-05-10T11:38:27.244Z,40.92
2023-05-10T11:39:31.867Z,41.01
2023-05-10T11:40:35.451Z,41.92
2023-05-10T11:41:38.793Z,42.32
2023-05-10T11:42:42.465Z,43.20
2023-05-10T11:43:48.008Z,43.50
2023-05-10T11:44:50.854Z,43.71
2023-05-10T11:45:53.897Z,45.30
2023-05-10T11:47:01.225Z,44.14
2023-05-10T11:48:04.386Z,43.92
2023-05-10T11:49:08.904Z,43.80
2023-05-10T11:50:12.717Z,44.97
2023-05-10T11:51:16.014Z,44.67
2023-05-10T11:52:20.207Z,44.00
2023-05-10T11:53:24.726Z,43.56
2023-05-10T11:54:28.739Z,40.90
2023-05-10T11:55:35.141Z,40.08
2023-05-10T11:56:42.299Z,41.06
2023-05-10T11:57:47.202Z,41.82
2023-05-10T11:58:59.149Z,42.01
2023-05-10T12:00:02.886Z,40.39
2023-05-10T12:01:08.998Z,40.81
2023-05-10T12:02:12.100Z,39.01
2023-05-10T12:03:15.686Z,40.10
2023-05-10T12:04:19.150Z,40.53
2023-05-10T12:05:22.455Z,39.83
2023-05-10T12:06:32.547Z,39.76
2023-05-10T12:07:36.236Z,39.81
2023-05-10T12:08:47.180Z,40.35
2023-05-10T12:10:15.757Z,39.22
2023-05-10T12:11:19.560Z,38.60
2023-05-10T12:12:22.421Z,39.17
2023-05-10T12:13:25.251Z,39.61
2023-05-10T12:14:28.145Z,38.78
2023-05-10T12:15:31.299Z,39.21
2023-05-10T12:16:34.249Z,40.21
2023-05-10T12:17:41.350Z,39.22
2023-05-10T12:18:49.464Z,36.65
2023-05-10T12:19:52.403Z,36.84
2023-05-10T12:20:55.726Z,37.10
2023-05-10T12:21:58.657Z,35.09
2023-05-10T12:23:04.536Z,35.79
2023-05-10T12:24:09.155Z,36.74
2023-05-10T12:25:12.131Z,36.53
2023-05-10T12:26:15.688Z,37.69
2023-05-10T12:28:40.366Z,37.67
2023-05-10T12:29:47.010Z,38.84
2023-05-10T12:30:49.722Z,38.50
2023-05-10T12:31:57.921Z,38.64
2023-05-10T12:33:11.754Z,39.28
2023-05-10T12:34:24.850Z,39.64
2023-05-10T12:35:27.670Z,39.17
2023-05-10T12:36:30.598Z,39.17
2023-05-10T12:37:36.962Z,39.82
2023-05-10T12:38:44.431Z,40.88
2023-05-10T12:39:47.337Z,40.25
2023-05-10T12:40:50.232Z,41.49
2023-05-10T12:41:53.934Z,40.97
2023-05-10T12:42:57.092Z,40.36
2023-05-10T12:44:00.061Z,39.53
2023-05-10T12:45:03.929Z,38.44
2023-05-10T12:46:14.042Z,38.90
2023-05-10T12:47:17.013Z,39.11
2023-05-10T12:48:19.873Z,39.13
2023-05-10T12:49:22.697Z,39.53
2023-05-10T12:50:26.103Z,39.86
2023-05-10T12:51:28.885Z,40.56
2023-05-10T12:52:35.304Z,40.15
2023-05-10T12:53:40.098Z,39.98
2023-05-10T12:54:44.419Z,40.50
2023-05-10T12:55:47.182Z,41.08
2023-05-10T12:56:49.954Z,41.08
2023-05-10T12:57:52.757Z,41.60
2023-05-10T12:58:55.583Z,40.98
2023-05-10T12:59:58.521Z,40.59
2023-05-10T13:01:01.717Z,40.74
2023-05-10T13:02:04.710Z,41.07
2023-05-10T13:03:07.713Z,41.34
2023-05-10T13:04:10.719Z,41.03
2023-05-10T13:05:14.511Z,40.41
2023-05-10T13:06:17.523Z,40.47
2023-05-10T13:07:20.319Z,39.91
2023-05-10T13:08:23.443Z,40.27
2023-05-10T13:09:30.787Z,39.82
2023-05-10T13:10:33.945Z,38.99
2023-05-10T13:11:37.671Z,39.35
2023-05-10T13:12:40.604Z,38.58
2023-05-10T13:13:43.667Z,39.54
2023-05-10T13:14:46.623Z,38.95
2023-05-10T13:15:49.506Z,38.15
2023-05-10T13:16:52.445Z,37.61
2023-05-10T13:18:08.363Z,38.48
2023-05-10T13:19:17.619Z,38.44
2023-05-10T13:20:20.726Z,37.57
2023-05-10T13:21:25.569Z,37.53
2023-05-10T13:22:39.204Z,38.74
2023-05-10T13:23:43.705Z,37.55
2023-05-10T13:24:46.516Z,36.46
2023-05-10T13:25:49.437Z,36.97
2023-05-10T13:26:52.400Z,36.49
2023-05-10T13:27:55.335Z,36.77
2023-05-10T13:28:58.404Z,37.13
2023-05-10T13:30:01.286Z,36.94
2023-05-10T13:31:04.167Z,36.42
2023-05-10T13:32:07.486Z,38.16
2023-05-10T13:33:10.252Z,40.32
2023-05-10T13:34:13.215Z,39.88
2023-05-10T13:35:16.684Z,38.97
2023-05-10T13:36:19.502Z,38.00
2023-05-10T13:37:22.638Z,37.49
2023-05-10T13:38:25.963Z,37.44
2023-05-10T13:39:30.966Z,37.97
2023-05-10T13:40:33.747Z,38.24
2023-05-10T13:41:36.632Z,40.96
2023-05-10T13:42:39.859Z,39.61
2023-05-10T13:43:42.750Z,39.07
2023-05-10T13:44:45.770Z,37.69
2023-05-10T13:45:48.630Z,37.40
2023-05-10T13:46:51.564Z,37.26
2023-05-10T13:47:54.473Z,37.62
2023-05-10T13:48:58.022Z,37.43
2023-05-10T13:50:00.856Z,37.34
2023-05-10T13:51:03.896Z,37.72
2023-05-10T13:52:11.218Z,38.77
2023-05-10T13:53:14.377Z,38.10
2023-05-10T13:54:18.701Z,38.47
2023-05-10T13:55:21.666Z,38.99
2023-05-10T13:56:24.525Z,38.87
2023-05-10T13:57:27.484Z,37.26
2023-05-10T13:58:30.711Z,37.64
2023-05-10T13:59:34.099Z,37.11
2023-05-10T14:00:36.819Z,37.78
2023-05-10T14:01:39.792Z,37.89
2023-05-10T14:02:42.738Z,38.08
2023-05-10T14:03:45.744Z,37.38